createdAt,value
2022-12-23T00:00:14.094Z,43.90
2022-12-23T00:03:16.731Z,40.90
2022-12-23T00:06:20.515Z,43.53
2022-12-23T00:09:23.006Z,44.00
2022-12-23T00:12:43.778Z,43.13
2022-12-23T00:15:46.109Z,43.05
2022-12-23T00:18:48.558Z,40.13
2022-12-23T00:21:50.908Z,44.20
2022-12-23T00:24:53.316Z,44.03
2022-12-23T00:28:01.550Z,44.08
2022-12-23T00:31:06.837Z,44.05
2022-12-23T00:34:11.032Z,45.30
2022-12-23T00:37:13.482Z,45.70
2022-12-23T00:40:35.049Z,46.22
2022-12-23T00:43:37.477Z,45.37
2022-12-23T00:46:39.881Z,46.05
2022-12-23T00:49:42.589Z,45.42
2022-12-23T00:52:44.945Z,45.37
2022-12-23T00:55:47.912Z,44.40
2022-12-23T00:58:50.380Z,48.53
2022-12-23T01:02:12.287Z,46.58
2022-12-23T01:05:33.351Z,45.28
2022-12-23T01:08:35.721Z,45.85
2022-12-23T01:11:38.246Z,46.65
2022-12-23T01:14:40.919Z,46.00
2022-12-23T01:17:43.298Z,40.60
2022-12-23T01:20:46.985Z,42.90
2022-12-23T01:23:49.348Z,44.30
2022-12-23T01:26:51.712Z,43.80
2022-12-23T01:29:54.111Z,45.30
2022-12-23T01:32:56.557Z,45.90
2022-12-23T01:36:07.561Z,45.75
2022-12-23T01:39:10.061Z,45.90
2022-12-23T01:42:37.226Z,39.95
2022-12-23T01:45:39.692Z,42.43
2022-12-23T01:48:45.129Z,41.92
2022-12-23T01:51:47.799Z,42.47
2022-12-23T01:54:50.513Z,43.73
2022-12-23T01:57:56.625Z,41.85
2022-12-23T02:01:18.414Z,40.05
2022-12-23T02:04:23.968Z,41.30
2022-12-23T02:07:46.225Z,38.85
2022-12-23T02:11:00.852Z,40.90
2022-12-23T02:14:50.184Z,41.55
2022-12-23T02:18:16.463Z,38.03
2022-12-23T02:21:43.367Z,41.33
2022-12-23T02:25:06.965Z,39.85
2022-12-23T02:28:25.853Z,39.13
2022-12-23T02:32:00.223Z,37.58
2022-12-23T02:35:21.108Z,35.85
2022-12-23T02:38:29.954Z,37.78
2022-12-23T02:41:35.091Z,41.28
2022-12-23T02:45:10.169Z,40.42
2022-12-23T02:48:22.410Z,40.17
2022-12-23T02:51:31.021Z,39.27
2022-12-23T02:54:40.845Z,37.95
2022-12-23T02:57:48.392Z,38.92
2022-12-23T03:00:51.456Z,36.27
2022-12-23T03:03:53.955Z,37.47
2022-12-23T03:07:01.673Z,39.00
2022-12-23T03:10:26.190Z,38.65
2022-12-23T03:13:47.310Z,35.50
2022-12-23T03:17:04.717Z,37.92
2022-12-23T03:20:26.381Z,38.60
2022-12-23T03:23:55.688Z,35.83
2022-12-23T03:27:06.929Z,36.70
2022-12-23T03:30:14.572Z,37.20
2022-12-23T03:33:26.960Z,42.63
2022-12-23T03:36:38.360Z,40.75
2022-12-23T03:39:49.632Z,39.33
2022-12-23T03:43:01.185Z,41.58
2022-12-23T03:46:10.810Z,40.78
2022-12-23T03:49:22.921Z,42.67
2022-12-23T03:52:33.314Z,40.90
2022-12-23T03:55:48.296Z,38.43
2022-12-23T03:59:00.684Z,41.35
2022-12-23T04:02:42.460Z,40.90
2022-12-23T04:05:52.569Z,44.10
2022-12-23T04:08:56.987Z,43.33
2022-12-23T04:12:00.549Z,41.13
2022-12-23T04:15:07.451Z,40.75
2022-12-23T04:18:13.240Z,41.15
2022-12-23T04:21:15.802Z,42.63
2022-12-23T04:24:18.221Z,41.47
2022-12-23T04:27:20.703Z,43.07
2022-12-23T04:30:28.050Z,40.92
2022-12-23T04:33:35.901Z,40.38
2022-12-23T04:36:38.297Z,44.00
2022-12-23T04:39:40.749Z,45.08
2022-12-23T04:42:43.137Z,46.17
2022-12-23T04:45:50.201Z,48.00
2022-12-23T04:48:52.642Z,44.67
2022-12-23T04:51:55.189Z,47.70
2022-12-23T04:54:57.662Z,48.10
2022-12-23T04:58:00.030Z,46.60
2022-12-23T05:01:03.373Z,44.22
2022-12-23T05:04:05.787Z,39.20
2022-12-23T05:07:08.132Z,37.70
2022-12-23T05:10:10.911Z,38.92
2022-12-23T05:13:13.687Z,40.60
2022-12-23T05:16:16.114Z,38.80
2022-12-23T05:19:18.475Z,41.85
2022-12-23T05:22:20.867Z,42.13
2022-12-23T05:25:23.199Z,44.22
2022-12-23T05:28:25.666Z,42.10
2022-12-23T05:31:28.294Z,45.65
2022-12-23T05:34:30.709Z,42.05
2022-12-23T05:37:33.146Z,44.93
2022-12-23T05:40:37.701Z,41.10
2022-12-23T05:43:40.368Z,38.95
2022-12-23T05:46:42.825Z,50.53
2022-12-23T05:49:45.457Z,42.00
2022-12-23T05:52:47.818Z,41.22
2022-12-23T05:55:50.538Z,42.10
2022-12-23T05:58:52.965Z,44.13
2022-12-23T06:01:55.477Z,41.28
2022-12-23T06:04:58.148Z,41.45
2022-12-23T06:08:00.532Z,41.83
2022-12-23T06:11:06.883Z,42.33
2022-12-23T06:14:10.293Z,41.80
2022-12-23T06:17:12.682Z,40.80
2022-12-23T06:20:20.446Z,43.35
2022-12-23T06:23:23.389Z,44.42
2022-12-23T06:26:26.416Z,44.75
2022-12-23T06:29:29.322Z,51.07
2022-12-23T06:32:37.887Z,44.80
2022-12-23T06:35:41.099Z,46.08
2022-12-23T06:38:43.477Z,47.73
2022-12-23T06:41:46.244Z,57.42
2022-12-23T06:44:48.719Z,64.60
2022-12-23T06:47:51.125Z,52.90
2022-12-23T06:50:55.433Z,57.17
2022-12-23T06:54:00.017Z,106.82
2022-12-23T06:57:02.405Z,91.18
2022-12-23T07:00:05.651Z,89.60
2022-12-23T07:03:08.555Z,75.90
2022-12-23T07:06:11.555Z,99.55
2022-12-23T07:09:13.964Z,134.80
2022-12-23T07:12:16.503Z,47.72
2022-12-23T07:15:18.916Z,64.22
2022-12-23T07:18:25.211Z,55.55
2022-12-23T07:21:29.726Z,53.47
2022-12-23T07:24:32.398Z,56.97
2022-12-23T07:27:34.798Z,50.85
2022-12-23T07:30:38.676Z,55.20
2022-12-23T07:33:41.201Z,57.58
2022-12-23T07:36:43.537Z,52.67
2022-12-23T07:39:45.988Z,49.40
2022-12-23T07:42:49.995Z,49.03
2022-12-23T07:45:59.150Z,51.85
2022-12-23T07:49:02.719Z,67.53
2022-12-23T07:52:05.224Z,63.22
2022-12-23T07:55:08.018Z,68.72
2022-12-23T07:58:10.404Z,49.20
2022-12-23T08:01:12.960Z,56.87
2022-12-23T08:04:15.334Z,57.85
2022-12-23T08:07:17.710Z,50.17
2022-12-23T08:10:20.045Z,49.10
2022-12-23T08:13:22.433Z,50.92
2022-12-23T08:16:24.804Z,53.47
2022-12-23T08:19:27.197Z,47.42
2022-12-23T08:22:31.907Z,44.75
2022-12-23T08:25:34.340Z,47.85
2022-12-23T08:28:37.576Z,50.63
2022-12-23T08:31:40.111Z,43.33
2022-12-23T08:34:42.569Z,47.90
2022-12-23T08:37:44.899Z,38.25
2022-12-23T08:40:47.702Z,39.43
2022-12-23T08:43:51.337Z,42.03
2022-12-23T08:46:54.925Z,46.85
2022-12-23T08:49:57.357Z,47.55
2022-12-23T08:52:59.922Z,49.08
2022-12-23T08:56:05.805Z,49.70
2022-12-23T08:59:18.681Z,44.78
2022-12-23T09:02:22.306Z,44.27
2022-12-23T09:05:25.022Z,46.22
2022-12-23T09:08:27.352Z,47.75
2022-12-23T09:11:30.096Z,42.97
2022-12-23T09:14:32.567Z,43.42
2022-12-23T09:17:35.288Z,45.17
2022-12-23T09:20:38.855Z,52.15
2022-12-23T09:23:41.731Z,49.78
2022-12-23T09:26:44.065Z,44.72
2022-12-23T09:29:46.485Z,48.13
2022-12-23T09:32:49.154Z,48.10
2022-12-23T09:35:51.531Z,45.15
2022-12-23T09:38:55.808Z,46.08
2022-12-23T09:42:28.300Z,53.83
2022-12-23T09:45:58.088Z,41.35
2022-12-23T09:49:09.235Z,46.03
2022-12-23T09:52:16.343Z,49.13
2022-12-23T09:55:20.722Z,47.67
2022-12-23T09:58:51.997Z,50.80
2022-12-23T10:02:22.374Z,44.50
2022-12-23T10:05:27.655Z,44.77
2022-12-23T10:08:41.857Z,41.97
2022-12-23T10:11:46.956Z,43.08
2022-12-23T10:14:52.631Z,46.73
2022-12-23T10:18:01.651Z,45.80
2022-12-23T10:21:14.574Z,54.85
2022-12-23T10:24:22.535Z,69.40
2022-12-23T10:27:42.451Z,45.53
2022-12-23T10:31:23.833Z,48.08
2022-12-23T10:34:22.678Z,43.70
2022-12-23T10:37:31.717Z,46.57
2022-12-23T10:41:08.804Z,42.75
2022-12-23T10:44:25.062Z,42.75
2022-12-23T10:47:35.886Z,40.20
2022-12-23T10:50:47.339Z,37.03
2022-12-23T10:53:55.978Z,38.67
2022-12-23T10:56:58.703Z,42.47
2022-12-23T11:00:01.538Z,34.63
2022-12-23T11:03:16.853Z,44.63
2022-12-23T11:06:19.532Z,42.53
2022-12-23T11:09:25.082Z,44.67
2022-12-23T11:12:52.269Z,44.88
2022-12-23T11:15:55.743Z,37.00
2022-12-23T11:19:02.135Z,44.53
2022-12-23T11:22:04.610Z,42.42
2022-12-23T11:25:27.587Z,52.50
2022-12-23T11:28:32.603Z,44.97
2022-12-23T11:31:36.588Z,51.65
2022-12-23T11:34:39.243Z,51.67
2022-12-23T11:37:43.055Z,52.42
2022-12-23T11:40:47.031Z,48.67
2022-12-23T11:43:57.627Z,47.95
2022-12-23T11:47:20.358Z,54.60
2022-12-23T11:50:31.188Z,55.87
2022-12-23T11:53:35.016Z,54.25
2022-12-23T11:56:40.500Z,57.42
2022-12-23T11:59:48.961Z,57.08
2022-12-23T12:03:03.638Z,60.13
2022-12-23T12:06:07.021Z,61.95
2022-12-23T12:09:13.112Z,61.22
2022-12-23T12:12:19.431Z,60.03
2022-12-23T12:15:48.154Z,63.35
2022-12-23T12:18:55.624Z,57.30
2022-12-23T12:22:05.187Z,55.20
2022-12-23T12:25:19.097Z,59.72
2022-12-23T12:28:25.966Z,64.22
2022-12-23T12:31:37.166Z,60.63
2022-12-23T12:35:03.611Z,59.35
2022-12-23T12:38:27.674Z,59.78
2022-12-23T12:41:38.392Z,58.25
2022-12-23T12:44:52.177Z,57.80
2022-12-23T12:48:28.211Z,57.88
2022-12-23T12:51:49.686Z,50.83
2022-12-23T12:55:32.895Z,53.20
2022-12-23T12:58:35.350Z,56.85
2022-12-23T13:01:44.739Z,56.08
2022-12-23T13:04:52.838Z,57.40
2022-12-23T13:08:07.230Z,56.60
2022-12-23T13:11:28.128Z,56.90
2022-12-23T13:14:49.224Z,60.92
2022-12-23T13:18:06.269Z,55.60
2022-12-23T13:21:17.308Z,59.47
2022-12-23T13:24:34.317Z,60.97
2022-12-23T13:27:54.767Z,55.57
2022-12-23T13:31:10.338Z,68.32
2022-12-23T13:34:24.947Z,65.00
2022-12-23T13:37:45.768Z,68.28
2022-12-23T13:41:22.880Z,54.83
2022-12-23T13:44:25.923Z,59.95
2022-12-23T13:47:48.630Z,61.22
2022-12-23T13:51:00.301Z,58.60
2022-12-23T13:54:21.998Z,62.55
2022-12-23T13:57:41.036Z,60.47
2022-12-23T14:00:45.310Z,55.53
2022-12-23T14:03:50.754Z,53.00
2022-12-23T14:06:55.860Z,55.10
2022-12-23T14:10:09.472Z,64.05
2022-12-23T14:13:17.253Z,53.53
2022-12-23T14:16:31.541Z,58.08
2022-12-23T14:19:33.851Z,48.88
2022-12-23T14:23:04.123Z,64.57
2022-12-23T14:26:21.428Z,63.58
2022-12-23T14:29:45.694Z,68.50
2022-12-23T14:32:50.562Z,60.27
2022-12-23T14:35:56.892Z,67.53
2022-12-23T14:39:11.150Z,64.63
2022-12-23T14:42:16.930Z,63.33
2022-12-23T14:45:41.610Z,61.55
2022-12-23T14:48:44.457Z,57.90
2022-12-23T14:51:50.780Z,62.72
2022-12-23T14:55:20.981Z,65.27
2022-12-23T14:58:18.661Z,72.07
2022-12-23T15:01:38.745Z,74.47
2022-12-23T15:04:55.043Z,80.37
2022-12-23T15:07:57.526Z,43.80
2022-12-23T15:11:00.249Z,46.22
2022-12-23T15:14:07.852Z,40.17
2022-12-23T15:17:25.047Z,37.88
2022-12-23T15:20:27.546Z,41.85
2022-12-23T15:23:30.441Z,41.83
2022-12-23T15:26:33.219Z,38.87
2022-12-23T15:29:35.833Z,33.67
2022-12-23T15:32:43.091Z,28.52
2022-12-23T15:35:46.030Z,32.67
2022-12-23T15:38:48.521Z,34.50
2022-12-23T15:41:50.893Z,29.42
2022-12-23T15:44:53.782Z,29.63
2022-12-23T15:47:56.170Z,26.67
2022-12-23T15:51:04.308Z,31.63
2022-12-23T15:54:08.550Z,30.75
2022-12-23T15:57:20.630Z,30.00
2022-12-23T16:00:41.024Z,30.55
2022-12-23T16:03:50.451Z,34.83
2022-12-23T16:06:53.644Z,35.13
2022-12-23T16:09:56.202Z,36.65
2022-12-23T16:12:59.069Z,38.60
2022-12-23T16:16:38.583Z,39.15
2022-12-23T16:19:44.668Z,34.25
2022-12-23T16:22:50.476Z,40.58
2022-12-23T16:25:53.435Z,35.47
2022-12-23T16:29:00.838Z,35.40
2022-12-23T16:32:03.339Z,38.70
2022-12-23T16:35:12.396Z,39.30
2022-12-23T16:38:23.738Z,45.43
2022-12-23T16:41:26.451Z,42.15
2022-12-23T16:44:28.963Z,39.40
2022-12-23T16:47:31.391Z,41.00
2022-12-23T16:50:37.322Z,43.05
2022-12-23T16:53:39.773Z,41.33
2022-12-23T16:56:43.093Z,39.90
2022-12-23T16:59:46.942Z,35.43
2022-12-23T17:02:49.683Z,35.08
2022-12-23T17:05:52.101Z,45.47
2022-12-23T17:08:56.946Z,47.10
2022-12-23T17:11:59.338Z,47.38
2022-12-23T17:15:01.667Z,41.42
2022-12-23T17:18:04.178Z,37.88
2022-12-23T17:21:16.965Z,39.63
2022-12-23T17:24:23.792Z,36.05
2022-12-23T17:27:26.296Z,32.13
2022-12-23T17:30:30.967Z,34.10
2022-12-23T17:33:33.742Z,33.28
2022-12-23T17:36:36.259Z,33.00
2022-12-23T17:39:39.467Z,39.13
2022-12-23T17:42:42.927Z,33.10
2022-12-23T17:45:45.833Z,32.25
2022-12-23T17:48:49.035Z,27.67
2022-12-23T17:51:51.448Z,27.92
2022-12-23T17:54:53.878Z,29.50
2022-12-23T17:57:56.326Z,28.25
2022-12-23T18:00:59.028Z,39.50
2022-12-23T18:04:01.524Z,30.92
2022-12-23T18:07:03.914Z,28.13
2022-12-23T18:10:07.174Z,30.57
2022-12-23T18:13:17.104Z,32.03
2022-12-23T18:16:19.548Z,28.05
2022-12-23T18:19:22.247Z,28.80
2022-12-23T18:22:27.007Z,28.92
2022-12-23T18:25:29.394Z,27.98
2022-12-23T18:28:31.947Z,26.00
2022-12-23T18:31:36.025Z,26.77
2022-12-23T18:34:38.343Z,27.10
2022-12-23T18:37:40.697Z,25.63
2022-12-23T18:40:44.656Z,27.43
2022-12-23T18:43:47.221Z,25.52
2022-12-23T18:46:50.394Z,24.50
2022-12-23T18:49:52.950Z,23.50
2022-12-23T18:52:56.276Z,25.23
2022-12-23T18:55:58.632Z,27.55
2022-12-23T18:59:01.032Z,30.08
2022-12-23T19:02:03.980Z,24.40
2022-12-23T19:05:07.442Z,24.75
2022-12-23T19:08:10.163Z,29.02
2022-12-23T19:11:20.560Z,28.33
2022-12-23T19:14:23.318Z,26.38
2022-12-23T19:17:25.698Z,24.40
2022-12-23T19:20:29.153Z,25.33
2022-12-23T19:23:31.930Z,22.30
2022-12-23T19:26:34.285Z,24.88
2022-12-23T19:29:37.256Z,22.40
2022-12-23T19:32:40.439Z,22.53
2022-12-23T19:35:44.397Z,22.70
2022-12-23T19:38:47.466Z,26.13
2022-12-23T19:41:50.258Z,25.13
2022-12-23T19:44:52.769Z,26.17
2022-12-23T19:47:55.262Z,24.38
2022-12-23T19:50:58.401Z,28.88
2022-12-23T19:54:00.750Z,29.25
2022-12-23T19:57:03.354Z,26.48
2022-12-23T20:00:06.739Z,24.02
2022-12-23T20:03:14.918Z,23.03
2022-12-23T20:06:20.610Z,19.75
2022-12-23T20:09:23.188Z,19.73
2022-12-23T20:12:27.454Z,19.87
2022-12-23T20:15:29.839Z,19.83
2022-12-23T20:18:32.390Z,21.02
2022-12-23T20:21:37.287Z,22.10
2022-12-23T20:24:39.688Z,23.02
2022-12-23T20:27:42.190Z,25.90
2022-12-23T20:30:48.405Z,25.70
2022-12-23T20:33:52.146Z,27.33
2022-12-23T20:36:54.778Z,29.13
2022-12-23T20:39:57.280Z,28.98
2022-12-23T20:42:59.640Z,29.30
2022-12-23T20:46:03.343Z,27.98
2022-12-23T20:49:05.881Z,25.75
2022-12-23T20:52:08.346Z,24.10
2022-12-23T20:55:10.708Z,24.58
2022-12-23T20:58:32.039Z,26.20
2022-12-23T21:01:37.902Z,24.60
2022-12-23T21:04:40.537Z,23.57
2022-12-23T21:07:42.948Z,24.23
2022-12-23T21:10:53.491Z,23.27
2022-12-23T21:14:01.157Z,23.07
2022-12-23T21:17:06.525Z,23.77
2022-12-23T21:20:09.314Z,21.58
2022-12-23T21:23:13.563Z,22.73
2022-12-23T21:26:18.701Z,24.40
2022-12-23T21:29:21.748Z,24.48
2022-12-23T21:32:24.341Z,24.05
2022-12-23T21:35:26.750Z,24.53
2022-12-23T21:38:34.208Z,25.05
2022-12-23T21:41:41.216Z,25.73
2022-12-23T21:44:43.634Z,26.33
2022-12-23T21:47:45.989Z,25.92
2022-12-23T21:50:54.033Z,25.65
2022-12-23T21:53:58.539Z,24.35
2022-12-23T21:57:00.891Z,28.95
2022-12-23T22:00:03.974Z,32.65
2022-12-23T22:03:07.037Z,34.35
2022-12-23T22:06:13.981Z,32.43
2022-12-23T22:09:19.642Z,39.78
2022-12-23T22:12:22.253Z,35.58
2022-12-23T22:15:24.641Z,36.10
2022-12-23T22:18:27.016Z,36.25
2022-12-23T22:21:31.885Z,33.22
2022-12-23T22:24:34.238Z,36.15
2022-12-23T22:27:36.745Z,32.90
2022-12-23T22:30:39.453Z,34.25
2022-12-23T22:33:42.053Z,31.65
2022-12-23T22:36:44.624Z,28.77
2022-12-23T22:39:47.193Z,28.48
2022-12-23T22:42:49.758Z,31.55
2022-12-23T22:45:57.239Z,31.03
2022-12-23T22:48:59.993Z,33.50
2022-12-23T22:52:02.623Z,38.55
2022-12-23T22:55:06.174Z,38.05
2022-12-23T22:58:08.540Z,32.47
2022-12-23T23:01:27.031Z,30.95
2022-12-23T23:04:29.441Z,33.20
2022-12-23T23:07:31.881Z,34.40
2022-12-23T23:10:35.688Z,36.83
2022-12-23T23:13:38.278Z,36.28
2022-12-23T23:16:40.784Z,40.77
2022-12-23T23:19:43.309Z,39.55
2022-12-23T23:22:45.717Z,38.45
2022-12-23T23:25:48.310Z,39.78
2022-12-23T23:28:50.696Z,38.60
2022-12-23T23:31:53.167Z,44.63
2022-12-23T23:34:55.664Z,39.92
2022-12-23T23:37:58.244Z,37.83
2022-12-23T23:41:01.673Z,37.05
2022-12-23T23:44:04.340Z,37.10
2022-12-23T23:47:06.677Z,38.20
2022-12-23T23:50:09.483Z,38.20
2022-12-23T23:53:13.991Z,35.63
2022-12-23T23:56:21.944Z,33.75
2022-12-23T23:59:27.341Z,33.42
